createdAt,value
2018-07-06T00:00:06.458Z,4.03
2018-07-06T00:02:51.509Z,3.47
2018-07-06T00:05:36.462Z,3.97
2018-07-06T00:08:21.426Z,4.20
2018-07-06T00:11:06.557Z,3.57
2018-07-06T00:13:51.302Z,3.60
2018-07-06T00:16:36.735Z,3.70
2018-07-06T00:19:21.613Z,3.33
2018-07-06T00:22:06.586Z,3.57
2018-07-06T00:24:51.500Z,3.50
2018-07-06T00:27:36.627Z,3.57
2018-07-06T00:30:21.510Z,3.50
2018-07-06T00:33:06.417Z,3.60
2018-07-06T00:35:51.375Z,3.43
2018-07-06T00:38:36.429Z,3.37
2018-07-06T00:41:21.513Z,3.63
2018-07-06T00:44:06.729Z,3.50
2018-07-06T00:46:51.557Z,3.70
2018-07-06T00:49:36.676Z,3.93
2018-07-06T00:52:21.536Z,3.30
2018-07-06T00:55:06.669Z,3.40
2018-07-06T00:57:52.150Z,2.90
2018-07-06T01:00:37.134Z,3.33
2018-07-06T01:03:22.111Z,3.07
2018-07-06T01:06:07.193Z,3.37
2018-07-06T01:08:52.299Z,2.80
2018-07-06T01:11:37.578Z,3.20
2018-07-06T01:14:22.536Z,2.73
2018-07-06T01:17:12.434Z,3.00
2018-07-06T01:19:57.587Z,3.10
2018-07-06T01:22:43.045Z,3.00
2018-07-06T01:25:27.836Z,2.60
2018-07-06T01:28:13.301Z,2.63
2018-07-06T01:30:58.409Z,2.80
2018-07-06T01:33:44.212Z,3.27
2018-07-06T01:36:29.108Z,3.10
2018-07-06T01:39:14.279Z,2.77
2018-07-06T01:41:59.201Z,2.80
2018-07-06T01:44:44.328Z,2.90
2018-07-06T01:47:30.229Z,2.83
2018-07-06T01:50:15.277Z,2.60
2018-07-06T01:53:00.070Z,2.67
2018-07-06T01:55:45.060Z,2.53
2018-07-06T01:58:29.851Z,2.57
2018-07-06T02:01:15.447Z,2.83
2018-07-06T02:04:00.405Z,2.43
2018-07-06T02:06:45.207Z,2.27
2018-07-06T02:09:30.220Z,2.27
2018-07-06T02:12:15.164Z,2.20
2018-07-06T02:15:00.122Z,2.20
2018-07-06T02:17:45.461Z,2.23
2018-07-06T02:20:30.270Z,1.90
2018-07-06T02:23:16.210Z,2.50
2018-07-06T02:26:01.102Z,2.10
2018-07-06T02:28:46.234Z,2.23
2018-07-06T02:31:31.171Z,2.10
2018-07-06T02:34:16.365Z,1.97
2018-07-06T02:37:01.325Z,2.50
2018-07-06T02:39:46.305Z,2.20
2018-07-06T02:42:31.214Z,2.60
2018-07-06T02:45:16.379Z,2.23
2018-07-06T02:48:01.366Z,2.23
2018-07-06T02:50:46.578Z,2.00
2018-07-06T02:53:31.333Z,2.00
2018-07-06T02:56:16.209Z,2.20
2018-07-06T02:59:01.077Z,2.13
2018-07-06T03:01:46.118Z,2.10
2018-07-06T03:04:31.072Z,2.10
2018-07-06T03:07:16.204Z,2.13
2018-07-06T03:10:01.317Z,1.93
2018-07-06T03:12:46.285Z,2.60
2018-07-06T03:15:31.092Z,2.50
2018-07-06T03:18:16.315Z,2.37
2018-07-06T03:21:01.188Z,2.27
2018-07-06T03:23:46.229Z,2.50
2018-07-06T03:26:31.103Z,2.50
2018-07-06T03:29:16.274Z,2.40
2018-07-06T03:32:01.092Z,2.40
2018-07-06T03:34:46.141Z,2.30
2018-07-06T03:37:30.925Z,2.37
2018-07-06T03:40:15.901Z,2.77
2018-07-06T03:43:00.860Z,2.53
2018-07-06T03:45:45.970Z,2.60
2018-07-06T03:48:31.082Z,2.63
2018-07-06T03:51:16.165Z,2.90
2018-07-06T03:54:00.985Z,2.83
2018-07-06T03:56:45.984Z,2.20
2018-07-06T03:59:30.827Z,2.33
2018-07-06T04:02:15.617Z,2.70
2018-07-06T04:05:00.511Z,2.60
2018-07-06T04:07:45.489Z,2.30
2018-07-06T04:10:30.454Z,2.80
2018-07-06T04:13:15.394Z,2.23
2018-07-06T04:16:00.467Z,2.60
2018-07-06T04:18:45.579Z,2.60
2018-07-06T04:21:30.488Z,2.30
2018-07-06T04:24:15.657Z,2.60
2018-07-06T04:27:01.277Z,2.73
2018-07-06T04:29:46.398Z,2.53
2018-07-06T04:32:31.722Z,2.33
2018-07-06T04:35:16.653Z,2.70
2018-07-06T04:38:01.402Z,2.73
2018-07-06T04:40:46.384Z,2.63
2018-07-06T04:43:31.157Z,2.97
2018-07-06T04:46:16.272Z,2.50
2018-07-06T04:49:01.148Z,2.73
2018-07-06T04:51:46.307Z,2.40
2018-07-06T04:54:31.082Z,2.43
2018-07-06T04:57:16.108Z,3.17
2018-07-06T05:00:00.908Z,2.33
2018-07-06T05:02:46.110Z,2.40
2018-07-06T05:05:31.076Z,2.73
2018-07-06T05:08:16.322Z,2.53
2018-07-06T05:11:01.329Z,2.43
2018-07-06T05:13:46.265Z,2.57
2018-07-06T05:16:31.182Z,2.30
2018-07-06T05:19:18.249Z,2.93
2018-07-06T05:22:03.100Z,2.80
2018-07-06T05:24:48.076Z,2.93
2018-07-06T05:27:33.013Z,2.50
2018-07-06T05:30:18.111Z,2.50
2018-07-06T05:33:02.953Z,2.40
2018-07-06T05:35:47.892Z,2.80
2018-07-06T05:38:32.823Z,2.73
2018-07-06T05:41:17.869Z,2.50
2018-07-06T05:44:02.582Z,2.93
2018-07-06T05:46:47.984Z,2.63
2018-07-06T05:49:32.780Z,2.67
2018-07-06T05:52:17.819Z,2.53
2018-07-06T05:55:02.764Z,2.50
2018-07-06T05:57:47.919Z,2.77
2018-07-06T06:00:32.930Z,3.00
2018-07-06T06:03:23.063Z,2.57
2018-07-06T06:06:07.890Z,2.90
2018-07-06T06:08:40.654Z,2.70
2018-07-06T06:11:08.190Z,2.43
2018-07-06T06:13:35.858Z,2.40
2018-07-06T06:16:03.821Z,2.83
2018-07-06T06:18:31.868Z,2.50
2018-07-06T06:21:00.352Z,2.33
2018-07-06T06:23:28.121Z,2.37
2018-07-06T06:25:55.817Z,2.60
2018-07-06T06:28:23.411Z,2.70
2018-07-06T06:30:51.209Z,2.40
2018-07-06T06:33:19.402Z,2.80
2018-07-06T06:35:48.123Z,2.40
2018-07-06T06:38:15.914Z,2.27
2018-07-06T06:40:43.782Z,2.33
2018-07-06T06:43:11.478Z,2.17
2018-07-06T06:45:39.932Z,2.50
2018-07-06T06:48:07.892Z,2.03
2018-07-06T06:50:36.507Z,2.20
2018-07-06T06:53:04.240Z,2.23
2018-07-06T06:58:30.903Z,2.07
2018-07-06T07:00:58.801Z,1.90
2018-07-06T07:03:26.520Z,1.93
2018-07-06T07:05:54.730Z,2.30
2018-07-06T07:08:22.657Z,1.80
2018-07-06T07:10:50.385Z,2.10
2018-07-06T07:13:18.283Z,1.70
2018-07-06T07:15:46.193Z,1.60
2018-07-06T07:18:13.973Z,1.70
2018-07-06T07:20:41.929Z,1.80
2018-07-06T07:23:10.093Z,2.10
2018-07-06T07:25:37.916Z,1.93
2018-07-06T07:28:05.698Z,2.10
2018-07-06T07:30:33.723Z,2.00
2018-07-06T07:33:01.389Z,2.03
2018-07-06T07:35:29.554Z,2.00
2018-07-06T07:37:57.499Z,2.00
2018-07-06T07:40:25.736Z,2.10
2018-07-06T07:42:54.582Z,1.90
2018-07-06T07:45:22.569Z,1.97
2018-07-06T07:47:50.310Z,2.03
2018-07-06T07:50:18.194Z,1.60
2018-07-06T07:52:57.042Z,2.37
2018-07-06T07:55:25.945Z,1.90
2018-07-06T07:57:53.670Z,2.10
2018-07-06T08:00:21.376Z,1.67
2018-07-06T08:02:49.288Z,1.60
2018-07-06T08:05:17.497Z,1.53
2018-07-06T08:07:45.210Z,1.50
2018-07-06T08:10:13.253Z,1.40
2018-07-06T08:12:41.194Z,1.63
2018-07-06T08:15:08.858Z,1.90
2018-07-06T08:17:36.723Z,1.90
2018-07-06T08:20:04.994Z,1.67
2018-07-06T08:22:32.634Z,2.00
2018-07-06T08:25:00.681Z,1.73
2018-07-06T08:27:28.330Z,1.70
2018-07-06T08:29:55.979Z,1.70
2018-07-06T08:32:23.898Z,1.67
2018-07-06T08:35:02.824Z,1.80
2018-07-06T08:37:44.907Z,1.63
2018-07-06T08:43:11.384Z,1.60
2018-07-06T08:45:39.260Z,1.80
2018-07-06T08:48:06.883Z,1.93
2018-07-06T08:50:34.573Z,1.70
2018-07-06T08:53:03.493Z,1.67
2018-07-06T08:55:31.236Z,2.10
2018-07-06T08:57:59.049Z,1.67
2018-07-06T09:00:27.030Z,2.00
2018-07-06T09:02:54.725Z,1.70
2018-07-06T09:05:22.437Z,1.87
2018-07-06T09:07:50.240Z,1.80
2018-07-06T09:10:17.853Z,1.77
2018-07-06T09:12:45.579Z,1.77
2018-07-06T09:15:14.072Z,1.60
2018-07-06T09:17:41.642Z,1.67
2018-07-06T09:20:09.559Z,1.90
2018-07-06T09:22:37.262Z,1.73
2018-07-06T09:25:06.205Z,1.90
2018-07-06T09:27:34.019Z,1.83
2018-07-06T09:30:01.863Z,1.80
2018-07-06T09:32:29.534Z,1.57
2018-07-06T09:34:57.287Z,1.63
2018-07-06T09:37:25.003Z,1.70
2018-07-06T09:39:52.897Z,1.60
2018-07-06T09:42:20.737Z,1.90
2018-07-06T09:44:48.700Z,1.87
2018-07-06T09:47:16.366Z,1.80
2018-07-06T09:49:44.092Z,2.00
2018-07-06T09:52:11.926Z,1.83
2018-07-06T09:54:39.569Z,1.70
2018-07-06T09:57:07.270Z,2.10
2018-07-06T09:59:35.105Z,1.97
2018-07-06T10:02:02.860Z,1.93
2018-07-06T10:04:30.632Z,1.50
2018-07-06T10:06:58.489Z,1.70
2018-07-06T10:09:26.691Z,1.40
2018-07-06T10:11:54.673Z,1.70
2018-07-06T10:14:22.507Z,2.00
2018-07-06T10:16:50.125Z,1.43
2018-07-06T10:19:18.023Z,1.63
2018-07-06T10:21:45.978Z,1.70
2018-07-06T10:24:13.630Z,1.80
2018-07-06T10:26:41.819Z,1.70
2018-07-06T10:29:20.994Z,1.60
2018-07-06T10:32:28.015Z,1.43
2018-07-06T10:34:55.990Z,1.40
2018-07-06T10:37:25.025Z,1.30
2018-07-06T10:39:53.078Z,1.50
2018-07-06T10:42:20.631Z,1.40
2018-07-06T10:44:48.310Z,1.63
2018-07-06T10:47:15.971Z,1.70
2018-07-06T10:49:43.689Z,1.60
2018-07-06T10:52:12.856Z,1.70
2018-07-06T10:54:41.365Z,2.10
2018-07-06T10:57:09.529Z,2.20
2018-07-06T10:59:37.271Z,1.83
2018-07-06T11:02:05.324Z,2.13
2018-07-06T11:04:33.186Z,2.00
2018-07-06T11:07:01.151Z,2.10
2018-07-06T11:09:28.889Z,2.20
2018-07-06T11:11:56.621Z,1.90
2018-07-06T11:14:24.268Z,1.90
2018-07-06T11:16:52.039Z,2.20
2018-07-06T11:19:20.665Z,2.10
2018-07-06T11:21:48.349Z,2.20
2018-07-06T11:24:16.106Z,2.03
2018-07-06T11:26:43.896Z,2.80
2018-07-06T11:29:11.853Z,2.10
2018-07-06T11:31:39.704Z,2.30
2018-07-06T11:34:07.969Z,2.40
2018-07-06T11:36:35.885Z,2.60
2018-07-06T11:39:05.010Z,2.83
2018-07-06T11:41:32.631Z,2.60
2018-07-06T11:44:00.369Z,2.20
2018-07-06T11:46:28.041Z,3.20
2018-07-06T11:48:55.744Z,2.77
2018-07-06T11:51:23.515Z,2.97
2018-07-06T11:53:51.194Z,2.80
2018-07-06T11:56:18.964Z,2.83
2018-07-06T11:58:47.472Z,2.90
2018-07-06T12:01:15.181Z,2.60
2018-07-06T12:03:43.924Z,3.10
2018-07-06T12:06:11.441Z,2.70
2018-07-06T12:08:39.601Z,2.90
2018-07-06T12:11:07.501Z,3.00
2018-07-06T12:13:35.377Z,2.70
2018-07-06T12:16:03.165Z,2.77
2018-07-06T12:18:32.418Z,2.20
2018-07-06T12:21:00.184Z,2.60
2018-07-06T12:23:28.015Z,2.23
2018-07-06T12:25:55.726Z,2.13
2018-07-06T12:28:23.855Z,2.43
2018-07-06T12:30:51.587Z,2.20
2018-07-06T12:33:19.203Z,2.23
2018-07-06T12:35:46.982Z,2.53
2018-07-06T12:38:14.733Z,2.47
2018-07-06T12:40:42.481Z,2.60
2018-07-06T12:43:10.348Z,2.27
2018-07-06T12:45:38.110Z,2.30
2018-07-06T12:48:06.608Z,2.43
2018-07-06T12:50:34.468Z,2.13
2018-07-06T12:53:02.563Z,1.90
2018-07-06T12:55:30.411Z,2.00
2018-07-06T12:57:59.093Z,2.30
2018-07-06T13:00:27.066Z,1.90
2018-07-06T13:02:54.782Z,1.93
2018-07-06T13:05:22.595Z,2.20
2018-07-06T13:07:50.369Z,1.97
2018-07-06T13:10:18.121Z,2.00
2018-07-06T13:12:45.824Z,2.10
2018-07-06T13:15:13.621Z,2.30
2018-07-06T13:17:41.275Z,2.00
2018-07-06T13:20:09.076Z,2.40
2018-07-06T13:22:37.005Z,2.10
2018-07-06T13:25:04.813Z,2.50
2018-07-06T13:27:32.635Z,2.50
2018-07-06T13:30:00.521Z,2.20
2018-07-06T13:32:28.180Z,2.30
2018-07-06T13:34:57.042Z,2.23
2018-07-06T13:37:25.546Z,2.10
2018-07-06T13:39:53.218Z,2.60
2018-07-06T13:42:21.015Z,2.60
2018-07-06T13:44:48.707Z,2.27
2018-07-06T13:47:16.416Z,2.03
2018-07-06T13:49:44.597Z,2.30
2018-07-06T13:52:12.413Z,2.40
2018-07-06T13:54:40.124Z,2.23
2018-07-06T13:57:08.868Z,2.90
2018-07-06T13:59:36.680Z,2.30
2018-07-06T14:02:04.338Z,2.33
2018-07-06T14:04:32.415Z,2.60
2018-07-06T14:07:00.285Z,2.40
2018-07-06T14:09:27.896Z,2.40
2018-07-06T14:11:55.808Z,2.10
2018-07-06T14:14:23.579Z,2.50
2018-07-06T14:16:51.263Z,2.37
2018-07-06T14:19:19.302Z,2.43
2018-07-06T14:21:47.220Z,2.50
2018-07-06T14:24:14.890Z,2.70
2018-07-06T14:26:42.743Z,2.43
2018-07-06T14:29:10.537Z,2.60
2018-07-06T14:31:38.433Z,2.33
2018-07-06T14:34:06.134Z,2.27
2018-07-06T14:36:33.754Z,2.50
2018-07-06T14:39:01.418Z,2.30
2018-07-06T14:41:29.523Z,2.70
2018-07-06T14:43:57.222Z,2.40
2018-07-06T14:46:24.875Z,2.30
2018-07-06T14:48:52.763Z,2.23
2018-07-06T14:51:20.709Z,2.40
2018-07-06T14:53:48.336Z,2.70
2018-07-06T14:56:16.034Z,2.63
2018-07-06T14:58:43.825Z,2.53
2018-07-06T15:01:11.421Z,2.57
2018-07-06T15:03:39.277Z,2.60
2018-07-06T15:06:07.248Z,2.60
2018-07-06T15:08:34.925Z,2.57
2018-07-06T15:11:02.714Z,2.60
2018-07-06T15:13:30.643Z,2.53
2018-07-06T15:15:58.330Z,2.80
2018-07-06T15:18:26.192Z,2.70
2018-07-06T15:20:54.004Z,2.43
2018-07-06T15:23:21.692Z,2.43
2018-07-06T15:25:49.524Z,2.47
2018-07-06T15:28:17.231Z,2.60
2018-07-06T15:30:44.868Z,2.60
2018-07-06T15:33:12.741Z,2.50
2018-07-06T15:35:40.414Z,2.80
2018-07-06T15:38:08.049Z,2.40
2018-07-06T15:40:35.858Z,2.63
2018-07-06T15:43:03.763Z,2.83
2018-07-06T15:45:31.473Z,2.47
2018-07-06T15:47:59.260Z,2.50
2018-07-06T15:50:27.084Z,2.50
2018-07-06T15:52:55.336Z,2.50
2018-07-06T15:55:23.078Z,2.73
2018-07-06T15:57:50.932Z,2.87
2018-07-06T16:00:18.599Z,2.67
2018-07-06T16:02:46.427Z,2.60
2018-07-06T16:05:14.208Z,2.70
2018-07-06T16:07:41.812Z,2.50
2018-07-06T16:10:09.517Z,2.80
2018-07-06T16:12:37.358Z,2.40
2018-07-06T16:15:05.236Z,2.67
2018-07-06T16:17:32.994Z,2.97
2018-07-06T16:20:00.904Z,2.50
2018-07-06T16:22:28.612Z,2.73
2018-07-06T16:24:56.504Z,2.87
2018-07-06T16:27:24.201Z,2.87
2018-07-06T16:29:51.879Z,2.50
2018-07-06T16:32:19.649Z,2.77
2018-07-06T16:34:47.764Z,3.13
2018-07-06T16:37:15.378Z,2.93
2018-07-06T16:39:43.146Z,4.00
2018-07-06T16:42:10.797Z,3.20
2018-07-06T16:44:38.547Z,3.40
2018-07-06T16:47:06.431Z,3.20
2018-07-06T16:49:34.041Z,2.70
2018-07-06T16:52:01.652Z,2.40
2018-07-06T16:54:29.539Z,2.73
2018-07-06T16:56:57.380Z,2.73
2018-07-06T16:59:25.018Z,3.00
2018-07-06T17:01:52.871Z,2.90
2018-07-06T17:04:20.781Z,2.90
2018-07-06T17:06:48.466Z,2.77
2018-07-06T17:09:16.947Z,2.60
2018-07-06T17:11:44.633Z,2.90
2018-07-06T17:14:12.226Z,2.33
2018-07-06T17:16:40.146Z,2.77
2018-07-06T17:19:08.635Z,2.90
2018-07-06T17:21:36.403Z,2.60
2018-07-06T17:24:04.222Z,2.70
2018-07-06T17:26:32.116Z,2.60
2018-07-06T17:28:59.714Z,2.77
2018-07-06T17:31:27.600Z,3.30
2018-07-06T17:33:55.541Z,3.07
2018-07-06T17:36:23.291Z,2.83
2018-07-06T17:38:51.238Z,3.30
2018-07-06T17:41:19.000Z,3.00
2018-07-06T17:43:46.605Z,3.13
2018-07-06T17:46:14.394Z,2.97
2018-07-06T17:48:42.743Z,3.30
2018-07-06T17:51:10.354Z,3.20
2018-07-06T17:53:38.186Z,3.33
2018-07-06T17:56:05.971Z,3.17
2018-07-06T17:58:33.647Z,2.83
2018-07-06T18:01:01.430Z,2.70
2018-07-06T18:03:29.083Z,3.50
2018-07-06T18:05:57.102Z,2.77
2018-07-06T18:08:25.135Z,3.03
2018-07-06T18:10:52.872Z,2.80
2018-07-06T18:13:20.578Z,3.00
2018-07-06T18:15:48.621Z,3.27
2018-07-06T18:18:16.474Z,2.93
2018-07-06T18:20:44.212Z,2.90
2018-07-06T18:23:12.226Z,3.07
2018-07-06T18:25:40.123Z,2.80
2018-07-06T18:28:07.793Z,3.27
2018-07-06T18:30:35.670Z,2.90
2018-07-06T18:33:03.336Z,3.20
2018-07-06T18:35:31.241Z,3.00
2018-07-06T18:37:59.177Z,3.73
2018-07-06T18:40:27.609Z,3.40
2018-07-06T18:42:55.750Z,2.93
2018-07-06T18:45:23.519Z,2.57
2018-07-06T18:47:51.223Z,3.30
2018-07-06T18:50:18.853Z,2.97
2018-07-06T18:52:46.639Z,3.10
2018-07-06T18:55:14.375Z,3.03
2018-07-06T18:57:42.045Z,2.67
2018-07-06T19:00:09.895Z,3.10
2018-07-06T19:02:38.012Z,3.60
2018-07-06T19:05:05.870Z,3.03
2018-07-06T19:07:33.895Z,3.17
2018-07-06T19:10:01.760Z,2.80
2018-07-06T19:12:29.426Z,3.23
2018-07-06T19:14:57.098Z,2.93
2018-07-06T19:17:25.102Z,2.87
2018-07-06T19:19:52.741Z,2.80
2018-07-06T19:22:21.651Z,3.07
2018-07-06T19:24:49.589Z,2.90
2018-07-06T19:27:17.251Z,3.20
2018-07-06T19:29:45.198Z,2.83
2018-07-06T19:32:12.942Z,3.03
2018-07-06T19:34:40.604Z,3.10
2018-07-06T19:37:08.485Z,3.20
2018-07-06T19:39:36.505Z,3.33
2018-07-06T19:42:05.148Z,2.90
2018-07-06T19:44:33.024Z,3.40
2018-07-06T19:47:00.869Z,3.10
2018-07-06T19:49:28.582Z,3.00
2018-07-06T19:51:57.425Z,3.40
2018-07-06T19:54:25.457Z,3.23
2018-07-06T19:56:53.143Z,3.20
2018-07-06T19:59:22.077Z,3.50
2018-07-06T20:01:50.527Z,3.03
2018-07-06T20:04:19.032Z,2.83
2018-07-06T20:06:46.984Z,3.20
2018-07-06T20:09:14.908Z,3.33
2018-07-06T20:11:42.652Z,3.47
2018-07-06T20:14:10.557Z,3.27
2018-07-06T20:16:38.385Z,3.17
2018-07-06T20:19:06.065Z,3.17
2018-07-06T20:21:33.893Z,3.10
2018-07-06T20:24:01.626Z,3.10
2018-07-06T20:26:29.923Z,3.00
2018-07-06T20:28:57.660Z,2.90
2018-07-06T20:31:25.488Z,2.40
2018-07-06T20:33:53.324Z,2.30
2018-07-06T20:36:21.115Z,2.20
2018-07-06T20:38:48.969Z,2.30
2018-07-06T20:41:16.931Z,2.17
2018-07-06T20:43:44.623Z,2.10
2018-07-06T20:46:12.364Z,2.10
2018-07-06T20:48:40.032Z,2.27
2018-07-06T20:51:07.855Z,1.83
2018-07-06T20:53:35.759Z,1.90
2018-07-06T20:56:03.467Z,2.10
2018-07-06T20:58:31.160Z,2.30
2018-07-06T21:00:59.063Z,2.20
2018-07-06T21:03:26.926Z,1.90
2018-07-06T21:05:54.988Z,2.13
2018-07-06T21:08:22.830Z,2.00
2018-07-06T21:10:50.505Z,1.93
2018-07-06T21:13:18.345Z,1.90
2018-07-06T21:15:46.069Z,2.10
2018-07-06T21:18:13.682Z,1.97
2018-07-06T21:20:41.442Z,1.60
2018-07-06T21:23:09.146Z,2.10
2018-07-06T21:25:36.817Z,1.77
2018-07-06T21:28:05.492Z,1.90
2018-07-06T21:30:33.224Z,2.03
2018-07-06T21:33:00.921Z,1.83
2018-07-06T21:35:28.743Z,2.13
2018-07-06T21:37:56.585Z,2.20
2018-07-06T21:40:24.277Z,2.03
2018-07-06T21:42:52.839Z,1.90
2018-07-06T21:45:20.703Z,2.10
2018-07-06T21:47:48.378Z,2.27
2018-07-06T21:50:16.199Z,2.03
2018-07-06T21:52:43.960Z,2.40
2018-07-06T21:55:11.628Z,2.33
2018-07-06T21:57:39.917Z,2.10
2018-07-06T22:00:07.801Z,2.30
2018-07-06T22:02:35.483Z,2.00
2018-07-06T22:05:03.468Z,2.07
2018-07-06T22:07:31.372Z,2.40
2018-07-06T22:09:59.014Z,2.00
2018-07-06T22:12:26.789Z,2.40
2018-07-06T22:14:54.575Z,2.30
2018-07-06T22:17:22.222Z,2.00
2018-07-06T22:19:49.999Z,2.40
2018-07-06T22:22:17.783Z,2.10
2018-07-06T22:24:47.969Z,2.40
2018-07-06T22:27:15.690Z,2.50
2018-07-06T22:29:43.444Z,2.30
2018-07-06T22:32:11.081Z,2.40
2018-07-06T22:34:38.889Z,2.33
2018-07-06T22:37:06.875Z,2.20
2018-07-06T22:39:34.531Z,2.33
2018-07-06T22:42:02.436Z,2.00
2018-07-06T22:44:30.327Z,1.97
2018-07-06T22:46:57.964Z,2.30
2018-07-06T22:49:25.710Z,2.00
2018-07-06T22:51:53.597Z,2.33
2018-07-06T22:54:21.231Z,2.13
2018-07-06T22:56:50.014Z,2.07
2018-07-06T22:59:17.760Z,2.30
2018-07-06T23:01:45.558Z,2.20
2018-07-06T23:04:13.409Z,2.17
2018-07-06T23:06:41.063Z,2.40
2018-07-06T23:09:08.704Z,2.33
2018-07-06T23:11:36.575Z,2.23
2018-07-06T23:14:04.336Z,2.20
2018-07-06T23:16:31.981Z,2.27
2018-07-06T23:18:59.829Z,2.30
2018-07-06T23:21:27.799Z,2.13
2018-07-06T23:23:55.510Z,2.20
2018-07-06T23:26:23.285Z,2.07
2018-07-06T23:28:51.201Z,2.10
2018-07-06T23:31:18.950Z,2.07
2018-07-06T23:33:46.656Z,2.20
2018-07-06T23:36:14.419Z,2.40
2018-07-06T23:38:42.116Z,2.37
2018-07-06T23:41:09.912Z,2.40
2018-07-06T23:43:37.763Z,2.23
2018-07-06T23:46:05.662Z,2.57
2018-07-06T23:48:33.461Z,2.43
2018-07-06T23:51:01.190Z,2.47
2018-07-06T23:53:28.896Z,2.30
2018-07-06T23:55:56.712Z,2.20
2018-07-06T23:58:24.606Z,2.33
